sensor_id;sensor_type;location;lat;lon;timestamp;pressure;altitude;pressure_sealevel;temperature;humidity
32237;BME280;18726;44.732;10.550;2023-03-01T00:03:02;101570.44;;;5.84;100.00
32237;BME280;18726;44.732;10.550;2023-03-01T00:06:05;101568.56;;;6.03;100.00
32237;BME280;18726;44.732;10.550;2023-03-01T00:09:09;101563.56;;;6.10;100.00
32237;BME280;18726;44.732;10.550;2023-03-01T00:12:13;101564.88;;;6.32;100.00
32237;BME280;18726;44.732;10.550;2023-03-01T00:15:16;101552.78;;;6.10;100.00
32237;BME280;18726;44.732;10.550;2023-03-01T00:18:20;101559.50;;;6.13;100.00
32237;BME280;18726;44.732;10.550;2023-03-01T00:21:24;101566.03;;;6.26;100.00
32237;BME280;18726;44.732;10.550;2023-03-01T00:24:28;101562.25;;;6.27;100.00
32237;BME280;18726;44.732;10.550;2023-03-01T00:27:33;101561.38;;;6.13;100.00
32237;BME280;18726;44.732;10.550;2023-03-01T00:30:36;101555.69;;;6.47;100.00
32237;BME280;18726;44.732;10.550;2023-03-01T00:33:40;101559.50;;;6.46;100.00
32237;BME280;18726;44.732;10.550;2023-03-01T00:36:44;101560.63;;;6.58;100.00
32237;BME280;18726;44.732;10.550;2023-03-01T00:39:49;101557.72;;;6.68;100.00
32237;BME280;18726;44.732;10.550;2023-03-01T00:42:52;101562.34;;;6.82;100.00
32237;BME280;18726;44.732;10.550;2023-03-01T00:46:00;101560.72;;;6.67;100.00
32237;BME280;18726;44.732;10.550;2023-03-01T00:49:05;101557.72;;;6.68;100.00
32237;BME280;18726;44.732;10.550;2023-03-01T00:52:08;101542.63;;;6.95;100.00
32237;BME280;18726;44.732;10.550;2023-03-01T00:55:12;101540.66;;;6.87;100.00
32237;BME280;18726;44.732;10.550;2023-03-01T00:58:17;101537.81;;;6.64;100.00
32237;BME280;18726;44.732;10.550;2023-03-01T01:01:23;101533.16;;;6.84;100.00
32237;BME280;18726;44.732;10.550;2023-03-01T01:04:27;101526.41;;;6.67;100.00
32237;BME280;18726;44.732;10.550;2023-03-01T01:07:31;101528.72;;;7.01;100.00
32237;BME280;18726;44.732;10.550;2023-03-01T01:10:35;101521.03;;;6.95;100.00
32237;BME280;18726;44.732;10.550;2023-03-01T01:13:39;101520.03;;;6.63;100.00
32237;BME280;18726;44.732;10.550;2023-03-01T01:16:44;101506.44;;;6.82;100.00
32237;BME280;18726;44.732;10.550;2023-03-01T01:19:47;101500.47;;;7.35;100.00
32237;BME280;18726;44.732;10.550;2023-03-01T01:22:51;101479.22;;;7.42;100.00
32237;BME280;18726;44.732;10.550;2023-03-01T01:25:55;101479.03;;;7.61;100.00
32237;BME280;18726;44.732;10.550;2023-03-01T01:29:01;101478.94;;;7.66;100.00
32237;BME280;18726;44.732;10.550;2023-03-01T01:32:05;101473.28;;;7.76;100.00
32237;BME280;18726;44.732;10.550;2023-03-01T01:35:09;101469.81;;;7.39;100.00
32237;BME280;18726;44.732;10.550;2023-03-01T01:38:12;101467.44;;;7.24;100.00
32237;BME280;18726;44.732;10.550;2023-03-01T01:41:17;101478.72;;;6.76;100.00
32237;BME280;18726;44.732;10.550;2023-03-01T01:44:26;101474.09;;;7.04;100.00
32237;BME280;18726;44.732;10.550;2023-03-01T01:47:30;101465.97;;;7.18;100.00
32237;BME280;18726;44.732;10.550;2023-03-01T01:50:35;101465.94;;;6.82;100.00
32237;BME280;18726;44.732;10.550;2023-03-01T01:53:43;101478.13;;;6.80;100.00
32237;BME280;18726;44.732;10.550;2023-03-01T01:56:52;101466.41;;;6.98;100.00
32237;BME280;18726;44.732;10.550;2023-03-01T02:00:00;101455.19;;;7.18;100.00
32237;BME280;18726;44.732;10.550;2023-03-01T02:03:25;101454.59;;;7.07;100.00
32237;BME280;18726;44.732;10.550;2023-03-01T02:06:39;101457.69;;;7.15;100.00
32237;BME280;18726;44.732;10.550;2023-03-01T02:09:47;101447.28;;;7.08;100.00
32237;BME280;18726;44.732;10.550;2023-03-01T02:12:52;101445.78;;;7.02;100.00
32237;BME280;18726;44.732;10.550;2023-03-01T02:15:56;101436.69;;;6.98;100.00
32237;BME280;18726;44.732;10.550;2023-03-01T02:19:00;101430.78;;;6.96;100.00
32237;BME280;18726;44.732;10.550;2023-03-01T02:22:31;101433.38;;;7.01;100.00
32237;BME280;18726;44.732;10.550;2023-03-01T02:28:45;101436.97;;;6.60;100.00
32237;BME280;18726;44.732;10.550;2023-03-01T02:31:51;101421.09;;;6.95;100.00
32237;BME280;18726;44.732;10.550;2023-03-01T02:34:56;101417.78;;;7.34;100.00
32237;BME280;18726;44.732;10.550;2023-03-01T02:38:01;101415.38;;;7.10;100.00
32237;BME280;18726;44.732;10.550;2023-03-01T02:41:05;101412.00;;;7.27;100.00
32237;BME280;18726;44.732;10.550;2023-03-01T02:44:11;101402.75;;;7.41;100.00
32237;BME280;18726;44.732;10.550;2023-03-01T02:47:15;101405.16;;;7.43;100.00
32237;BME280;18726;44.732;10.550;2023-03-01T02:50:35;101398.97;;;7.51;100.00
32237;BME280;18726;44.732;10.550;2023-03-01T02:56:57;101395.44;;;7.42;100.00
32237;BME280;18726;44.732;10.550;2023-03-01T03:00:05;101403.03;;;7.18;100.00
32237;BME280;18726;44.732;10.550;2023-03-01T03:03:13;101396.56;;;7.05;100.00
32237;BME280;18726;44.732;10.550;2023-03-01T03:06:18;101387.22;;;6.89;100.00
32237;BME280;18726;44.732;10.550;2023-03-01T03:09:23;101385.16;;;7.30;100.00
32237;BME280;18726;44.732;10.550;2023-03-01T03:12:27;101387.13;;;6.66;100.00
32237;BME280;18726;44.732;10.550;2023-03-01T03:15:31;101381.13;;;6.83;100.00
32237;BME280;18726;44.732;10.550;2023-03-01T03:18:35;101377.28;;;6.98;100.00
32237;BME280;18726;44.732;10.550;2023-03-01T03:21:38;101367.72;;;7.14;100.00
32237;BME280;18726;44.732;10.550;2023-03-01T03:24:42;101373.72;;;6.89;100.00
32237;BME280;18726;44.732;10.550;2023-03-01T03:27:47;101384.38;;;6.94;100.00
32237;BME280;18726;44.732;10.550;2023-03-01T03:30:52;101368.84;;;7.13;100.00
32237;BME280;18726;44.732;10.550;2023-03-01T03:33:55;101363.22;;;6.87;100.00
32237;BME280;18726;44.732;10.550;2023-03-01T03:37:00;101374.59;;;6.48;100.00
32237;BME280;18726;44.732;10.550;2023-03-01T03:40:03;101374.94;;;6.83;100.00
32237;BME280;18726;44.732;10.550;2023-03-01T03:43:21;101370.88;;;6.94;100.00
32237;BME280;18726;44.732;10.550;2023-03-01T03:46:24;101366.16;;;6.99;100.00
32237;BME280;18726;44.732;10.550;2023-03-01T03:49:28;101368.75;;;6.68;100.00
32237;BME280;18726;44.732;10.550;2023-03-01T03:52:32;101372.34;;;6.77;100.00
32237;BME280;18726;44.732;10.550;2023-03-01T03:55:36;101358.91;;;6.86;100.00
32237;BME280;18726;44.732;10.550;2023-03-01T03:58:42;101357.88;;;6.60;100.00
32237;BME280;18726;44.732;10.550;2023-03-01T04:01:45;101366.00;;;6.19;100.00
32237;BME280;18726;44.732;10.550;2023-03-01T04:04:49;101369.41;;;6.24;100.00
32237;BME280;18726;44.732;10.550;2023-03-01T04:07:53;101358.38;;;6.48;100.00
32237;BME280;18726;44.732;10.550;2023-03-01T04:11:05;101358.19;;;6.94;100.00
32237;BME280;18726;44.732;10.550;2023-03-01T04:14:27;101342.31;;;7.15;100.00
32237;BME280;18726;44.732;10.550;2023-03-01T04:17:30;101349.53;;;6.84;100.00
32237;BME280;18726;44.732;10.550;2023-03-01T04:20:35;101342.47;;;6.96;100.00
32237;BME280;18726;44.732;10.550;2023-03-01T04:23:39;101349.84;;;7.04;100.00
32237;BME280;18726;44.732;10.550;2023-03-01T04:26:44;101353.03;;;7.06;100.00
32237;BME280;18726;44.732;10.550;2023-03-01T04:29:48;101345.06;;;7.01;100.00
32237;BME280;18726;44.732;10.550;2023-03-01T04:32:51;101345.00;;;6.93;100.00
32237;BME280;18726;44.732;10.550;2023-03-01T04:35:55;101347.06;;;6.96;100.00
32237;BME280;18726;44.732;10.550;2023-03-01T04:39:00;101346.50;;;7.21;100.00
32237;BME280;18726;44.732;10.550;2023-03-01T04:42:15;101353.59;;;6.59;100.00
32237;BME280;18726;44.732;10.550;2023-03-01T04:45:20;101352.81;;;6.31;100.00
32237;BME280;18726;44.732;10.550;2023-03-01T04:48:24;101346.16;;;6.64;100.00
32237;BME280;18726;44.732;10.550;2023-03-01T04:51:27;101359.19;;;6.07;100.00
32237;BME280;18726;44.732;10.550;2023-03-01T04:54:32;101363.94;;;5.83;100.00
32237;BME280;18726;44.732;10.550;2023-03-01T04:57:36;101355.22;;;6.19;100.00
32237;BME280;18726;44.732;10.550;2023-03-01T05:00:40;101343.59;;;6.59;100.00
32237;BME280;18726;44.732;10.550;2023-03-01T05:03:49;101350.00;;;6.08;100.00
32237;BME280;18726;44.732;10.550;2023-03-01T05:06:53;101353.81;;;6.07;100.00
32237;BME280;18726;44.732;10.550;2023-03-01T05:09:57;101349.13;;;5.99;100.00
32237;BME280;18726;44.732;10.550;2023-03-01T05:13:02;101349.19;;;6.08;100.00
32237;BME280;18726;44.732;10.550;2023-03-01T05:16:07;101347.78;;;6.38;100.00
32237;BME280;18726;44.732;10.550;2023-03-01T05:19:14;101342.78;;;6.45;100.00
32237;BME280;18726;44.732;10.550;2023-03-01T05:22:25;101337.38;;;6.59;100.00
32237;BME280;18726;44.732;10.550;2023-03-01T05:25:29;101342.19;;;6.48;100.00
32237;BME280;18726;44.732;10.550;2023-03-01T05:28:36;101346.00;;;6.61;100.00
32237;BME280;18726;44.732;10.550;2023-03-01T05:31:41;101345.13;;;6.74;100.00
32237;BME280;18726;44.732;10.550;2023-03-01T05:34:44;101341.25;;;6.66;100.00
32237;BME280;18726;44.732;10.550;2023-03-01T05:37:50;101348.00;;;6.41;100.00
32237;BME280;18726;44.732;10.550;2023-03-01T05:40:54;101358.31;;;5.98;100.00
32237;BME280;18726;44.732;10.550;2023-03-01T05:43:58;101351.72;;;6.18;100.00
32237;BME280;18726;44.732;10.550;2023-03-01T05:47:01;101342.00;;;6.44;100.00
32237;BME280;18726;44.732;10.550;2023-03-01T05:50:05;101352.22;;;6.34;100.00
32237;BME280;18726;44.732;10.550;2023-03-01T05:53:19;101349.66;;;6.65;100.00
32237;BME280;18726;44.732;10.550;2023-03-01T05:56:24;101341.31;;;7.11;100.00
32237;BME280;18726;44.732;10.550;2023-03-01T05:59:27;101353.63;;;6.81;100.00
32237;BME280;18726;44.732;10.550;2023-03-01T06:02:31;101354.94;;;6.70;100.00
32237;BME280;18726;44.732;10.550;2023-03-01T06:05:34;101360.63;;;6.05;100.00
32237;BME280;18726;44.732;10.550;2023-03-01T06:08:37;101354.31;;;5.96;100.00
32237;BME280;18726;44.732;10.550;2023-03-01T06:11:41;101368.75;;;5.54;100.00
32237;BME280;18726;44.732;10.550;2023-03-01T06:14:46;101366.25;;;5.43;100.00
32237;BME280;18726;44.732;10.550;2023-03-01T06:17:53;101351.72;;;6.04;100.00
32237;BME280;18726;44.732;10.550;2023-03-01T06:20:58;101358.78;;;6.41;100.00
32237;BME280;18726;44.732;10.550;2023-03-01T06:24:03;101370.38;;;6.15;100.00
32237;BME280;18726;44.732;10.550;2023-03-01T06:27:06;101374.72;;;5.69;100.00
32237;BME280;18726;44.732;10.550;2023-03-01T06:30:12;101372.97;;;5.92;100.00
32237;BME280;18726;44.732;10.550;2023-03-01T06:33:18;101371.69;;;6.17;100.00
32237;BME280;18726;44.732;10.550;2023-03-01T06:36:23;101360.59;;;6.46;100.00
32237;BME280;18726;44.732;10.550;2023-03-01T06:39:27;101369.50;;;6.33;100.00
32237;BME280;18726;44.732;10.550;2023-03-01T06:42:31;101373.00;;;6.20;100.00
32237;BME280;18726;44.732;10.550;2023-03-01T06:45:34;101375.00;;;6.28;100.00
32237;BME280;18726;44.732;10.550;2023-03-01T06:48:38;101368.22;;;6.30;100.00
32237;BME280;18726;44.732;10.550;2023-03-01T06:51:42;101370.78;;;6.49;100.00
32237;BME280;18726;44.732;10.550;2023-03-01T06:54:45;101365.78;;;6.42;100.00
32237;BME280;18726;44.732;10.550;2023-03-01T06:57:48;101369.75;;;6.72;100.00
32237;BME280;18726;44.732;10.550;2023-03-01T07:00:56;101363.94;;;6.79;100.00
32237;BME280;18726;44.732;10.550;2023-03-01T07:04:00;101373.38;;;6.54;100.00
32237;BME280;18726;44.732;10.550;2023-03-01T07:07:03;101372.38;;;6.64;100.00
32237;BME280;18726;44.732;10.550;2023-03-01T07:10:08;101388.56;;;6.50;100.00
32237;BME280;18726;44.732;10.550;2023-03-01T07:13:11;101384.78;;;6.24;100.00
32237;BME280;18726;44.732;10.550;2023-03-01T07:16:15;101380.28;;;6.47;100.00
32237;BME280;18726;44.732;10.550;2023-03-01T07:19:20;101379.44;;;6.73;100.00
32237;BME280;18726;44.732;10.550;2023-03-01T07:22:24;101382.81;;;6.93;100.00
32237;BME280;18726;44.732;10.550;2023-03-01T07:25:28;101379.97;;;6.98;100.00
32237;BME280;18726;44.732;10.550;2023-03-01T07:28:31;101369.44;;;7.10;100.00
32237;BME280;18726;44.732;10.550;2023-03-01T07:31:39;101363.91;;;7.37;100.00
32237;BME280;18726;44.732;10.550;2023-03-01T07:34:42;101357.16;;;7.26;100.00
32237;BME280;18726;44.732;10.550;2023-03-01T07:37:46;101368.16;;;7.30;100.00
32237;BME280;18726;44.732;10.550;2023-03-01T07:40:50;101356.66;;;7.24;100.00
32237;BME280;18726;44.732;10.550;2023-03-01T07:43:53;101358.63;;;6.88;100.00
32237;BME280;18726;44.732;10.550;2023-03-01T07:46:57;101365.38;;;6.49;100.00
32237;BME280;18726;44.732;10.550;2023-03-01T07:50:02;101364.91;;;6.20;100.00
32237;BME280;18726;44.732;10.550;2023-03-01T07:53:06;101360.13;;;5.70;100.00
32237;BME280;18726;44.732;10.550;2023-03-01T07:56:13;101357.38;;;5.43;100.00
32237;BME280;18726;44.732;10.550;2023-03-01T07:59:17;101350.34;;;5.28;100.00
32237;BME280;18726;44.732;10.550;2023-03-01T08:02:21;101339.81;;;5.13;100.00
32237;BME280;18726;44.732;10.550;2023-03-01T08:05:24;101350.16;;;5.06;100.00
32237;BME280;18726;44.732;10.550;2023-03-01T08:08:28;101348.91;;;4.98;100.00
32237;BME280;18726;44.732;10.550;2023-03-01T08:11:32;101351.03;;;4.83;100.00
32237;BME280;18726;44.732;10.550;2023-03-01T08:14:36;101360.28;;;4.77;100.00
32237;BME280;18726;44.732;10.550;2023-03-01T08:17:40;101338.22;;;4.74;100.00
32237;BME280;18726;44.732;10.550;2023-03-01T08:20:44;101335.03;;;4.72;100.00
32237;BME280;18726;44.732;10.550;2023-03-01T08:23:47;101328.50;;;4.79;100.00
32237;BME280;18726;44.732;10.550;2023-03-01T08:26:51;101330.66;;;4.77;100.00
32237;BME280;18726;44.732;10.550;2023-03-01T08:29:54;101336.75;;;4.63;100.00
32237;BME280;18726;44.732;10.550;2023-03-01T08:32:57;101330.81;;;4.66;100.00
32237;BME280;18726;44.732;10.550;2023-03-01T08:36:05;101330.81;;;4.66;100.00
32237;BME280;18726;44.732;10.550;2023-03-01T08:39:12;101318.38;;;4.70;100.00
32237;BME280;18726;44.732;10.550;2023-03-01T08:42:16;101317.72;;;4.79;100.00
32237;BME280;18726;44.732;10.550;2023-03-01T08:45:20;101312.34;;;4.79;100.00
32237;BME280;18726;44.732;10.550;2023-03-01T08:48:23;101305.78;;;4.85;100.00
32237;BME280;18726;44.732;10.550;2023-03-01T08:51:27;101298.06;;;4.97;100.00
32237;BME280;18726;44.732;10.550;2023-03-01T08:54:32;101298.91;;;5.11;100.00
32237;BME280;18726;44.732;10.550;2023-03-01T08:57:36;101309.50;;;5.21;100.00
32237;BME280;18726;44.732;10.550;2023-03-01T09:00:40;101306.16;;;5.29;100.00
32237;BME280;18726;44.732;10.550;2023-03-01T09:03:44;101301.06;;;5.28;100.00
32237;BME280;18726;44.732;10.550;2023-03-01T12:46:20;101172.88;;;5.13;100.00
32237;BME280;18726;44.732;10.550;2023-03-01T12:49:28;101188.53;;;5.11;100.00
32237;BME280;18726;44.732;10.550;2023-03-01T12:52:44;101187.00;;;5.05;100.00
32237;BME280;18726;44.732;10.550;2023-03-01T12:55:52;101179.09;;;4.95;100.00
32237;BME280;18726;44.732;10.550;2023-03-01T12:59:08;101176.03;;;4.88;100.00
32237;BME280;18726;44.732;10.550;2023-03-01T13:02:25;101176.91;;;4.97;100.00
32237;BME280;18726;44.732;10.550;2023-03-01T13:09:29;101166.97;;;5.11;100.00
32237;BME280;18726;44.732;10.550;2023-03-01T13:15:54;101134.34;;;5.26;100.00
32237;BME280;18726;44.732;10.550;2023-03-01T13:19:19;101125.50;;;5.39;100.00
32237;BME280;18726;44.732;10.550;2023-03-01T13:22:32;101127.38;;;5.25;100.00
32237;BME280;18726;44.732;10.550;2023-03-01T13:29:00;101111.19;;;5.66;100.00
32237;BME280;18726;44.732;10.550;2023-03-01T13:32:22;101110.59;;;5.69;100.00
32237;BME280;18726;44.732;10.550;2023-03-01T13:44:46;101181.03;;;5.08;100.00
32237;BME280;18726;44.732;10.550;2023-03-01T13:47:57;101180.03;;;5.04;100.00
32237;BME280;18726;44.732;10.550;2023-03-01T13:51:04;101164.56;;;5.23;100.00
32237;BME280;18726;44.732;10.550;2023-03-01T13:54:12;101168.88;;;5.24;100.00
32237;BME280;18726;44.732;10.550;2023-03-01T13:57:32;101158.81;;;5.16;100.00
32237;BME280;18726;44.732;10.550;2023-03-01T14:00:39;101158.22;;;5.19;100.00
32237;BME280;18726;44.732;10.550;2023-03-01T14:03:43;101172.53;;;5.01;100.00
32237;BME280;18726;44.732;10.550;2023-03-01T14:06:47;101165.16;;;5.20;100.00
32237;BME280;18726;44.732;10.550;2023-03-01T14:10:00;101163.91;;;5.18;100.00
32237;BME280;18726;44.732;10.550;2023-03-01T14:19:37;101168.25;;;5.00;100.00
32237;BME280;18726;44.732;10.550;2023-03-01T14:22:42;101167.16;;;5.01;100.00
32237;BME280;18726;44.732;10.550;2023-03-01T14:25:57;101163.53;;;4.92;100.00
32237;BME280;18726;44.732;10.550;2023-03-01T14:29:01;101161.19;;;5.04;100.00
32237;BME280;18726;44.732;10.550;2023-03-01T14:32:12;101163.38;;;5.02;100.00
32237;BME280;18726;44.732;10.550;2023-03-01T14:35:33;101160.28;;;5.08;100.00
32237;BME280;18726;44.732;10.550;2023-03-01T14:38:39;101171.22;;;4.98;100.00
32237;BME280;18726;44.732;10.550;2023-03-01T14:41:43;101171.44;;;5.02;100.00
32237;BME280;18726;44.732;10.550;2023-03-01T14:44:50;101178.63;;;5.06;100.00
32237;BME280;18726;44.732;10.550;2023-03-01T14:47:54;101169.13;;;4.95;100.00
32237;BME280;18726;44.732;10.550;2023-03-01T14:50:59;101171.63;;;4.92;100.00
32237;BME280;18726;44.732;10.550;2023-03-01T14:54:11;101170.78;;;4.78;100.00
32237;BME280;18726;44.732;10.550;2023-03-01T14:57:21;101171.13;;;4.90;100.00
32237;BME280;18726;44.732;10.550;2023-03-01T15:00:29;101169.25;;;4.90;100.00
32237;BME280;18726;44.732;10.550;2023-03-01T15:03:36;101167.69;;;5.30;100.00
32237;BME280;18726;44.732;10.550;2023-03-01T15:06:43;101181.13;;;5.03;100.00
32237;BME280;18726;44.732;10.550;2023-03-01T15:09:47;101183.91;;;4.98;100.00
32237;BME280;18726;44.732;10.550;2023-03-01T15:12:51;101179.41;;;4.93;100.00
32237;BME280;18726;44.732;10.550;2023-03-01T15:16:05;101194.09;;;4.68;100.00
32237;BME280;18726;44.732;10.550;2023-03-01T15:19:17;101190.56;;;4.54;100.00
32237;BME280;18726;44.732;10.550;2023-03-01T15:26:23;101159.78;;;5.20;100.00
32237;BME280;18726;44.732;10.550;2023-03-01T15:29:30;101164.47;;;5.01;100.00
32237;BME280;18726;44.732;10.550;2023-03-01T15:32:37;101172.03;;;4.99;100.00
32237;BME280;18726;44.732;10.550;2023-03-01T15:35:45;101171.44;;;4.88;100.00
32237;BME280;18726;44.732;10.550;2023-03-01T15:38:56;101174.94;;;4.89;100.00
32237;BME280;18726;44.732;10.550;2023-03-01T15:42:01;101175.81;;;4.98;100.00
32237;BME280;18726;44.732;10.550;2023-03-01T15:48:18;101182.66;;;4.77;100.00
32237;BME280;18726;44.732;10.550;2023-03-01T15:51:35;101179.81;;;4.87;100.00
32237;BME280;18726;44.732;10.550;2023-03-01T15:54:39;101188.13;;;4.71;100.00
32237;BME280;18726;44.732;10.550;2023-03-01T15:57:44;101181.81;;;4.62;100.00
32237;BME280;18726;44.732;10.550;2023-03-01T16:00:49;101188.63;;;4.73;100.00
32237;BME280;18726;44.732;10.550;2023-03-01T16:03:55;101179.53;;;4.69;100.00
32237;BME280;18726;44.732;10.550;2023-03-01T16:06:59;101179.00;;;4.54;100.00
32237;BME280;18726;44.732;10.550;2023-03-01T16:10:04;101172.69;;;4.45;100.00
32237;BME280;18726;44.732;10.550;2023-03-01T16:13:07;101170.31;;;4.24;100.00
32237;BME280;18726;44.732;10.550;2023-03-01T16:16:13;101170.81;;;4.26;100.00
32237;BME280;18726;44.732;10.550;2023-03-01T16:19:19;101178.66;;;4.23;100.00
32237;BME280;18726;44.732;10.550;2023-03-01T16:22:23;101175.53;;;4.16;100.00
32237;BME280;18726;44.732;10.550;2023-03-01T16:25:29;101172.19;;;4.24;100.00
32237;BME280;18726;44.732;10.550;2023-03-01T16:28:33;101174.00;;;4.28;100.00
32237;BME280;18726;44.732;10.550;2023-03-01T16:31:36;101167.19;;;4.17;100.00
32237;BME280;18726;44.732;10.550;2023-03-01T16:34:40;101176.19;;;4.07;100.00
32237;BME280;18726;44.732;10.550;2023-03-01T16:37:44;101176.75;;;4.04;100.00
32237;BME280;18726;44.732;10.550;2023-03-01T16:40:50;101167.63;;;4.24;100.00
32237;BME280;18726;44.732;10.550;2023-03-01T16:43:54;101161.69;;;4.60;100.00
32237;BME280;18726;44.732;10.550;2023-03-01T16:46:58;101164.03;;;4.94;100.00
32237;BME280;18726;44.732;10.550;2023-03-01T16:50:01;101166.63;;;4.85;100.00
32237;BME280;18726;44.732;10.550;2023-03-01T16:56:47;101173.72;;;4.11;100.00
32237;BME280;18726;44.732;10.550;2023-03-01T16:59:53;101177.50;;;4.29;100.00
32237;BME280;18726;44.732;10.550;2023-03-01T17:02:57;101171.72;;;4.54;100.00
32237;BME280;18726;44.732;10.550;2023-03-01T17:06:05;101174.81;;;4.29;100.00
32237;BME280;18726;44.732;10.550;2023-03-01T17:09:08;101180.41;;;4.14;100.00
32237;BME280;18726;44.732;10.550;2023-03-01T17:12:13;101176.41;;;4.11;100.00
32237;BME280;18726;44.732;10.550;2023-03-01T17:15:16;101178.28;;;4.11;100.00
32237;BME280;18726;44.732;10.550;2023-03-01T17:18:20;101180.09;;;4.34;100.00
32237;BME280;18726;44.732;10.550;2023-03-01T17:21:25;101174.88;;;4.24;100.00
32237;BME280;18726;44.732;10.550;2023-03-01T17:24:32;101179.97;;;4.25;100.00
32237;BME280;18726;44.732;10.550;2023-03-01T17:27:38;101184.31;;;4.40;100.00
32237;BME280;18726;44.732;10.550;2023-03-01T17:30:43;101180.47;;;4.46;100.00
32237;BME280;18726;44.732;10.550;2023-03-01T17:33:48;101182.19;;;4.37;100.00
32237;BME280;18726;44.732;10.550;2023-03-01T17:36:52;101185.03;;;4.08;100.00
32237;BME280;18726;44.732;10.550;2023-03-01T17:39:57;101189.31;;;3.90;100.00
32237;BME280;18726;44.732;10.550;2023-03-01T17:43:00;101199.16;;;4.00;100.00
32237;BME280;18726;44.732;10.550;2023-03-01T17:46:05;101198.19;;;4.10;100.00
32237;BME280;18726;44.732;10.550;2023-03-01T17:49:09;101201.31;;;4.35;100.00
32237;BME280;18726;44.732;10.550;2023-03-01T17:52:13;101201.72;;;4.29;100.00
32237;BME280;18726;44.732;10.550;2023-03-01T17:59:44;101213.38;;;4.38;100.00
32237;BME280;18726;44.732;10.550;2023-03-01T18:02:47;101221.63;;;4.28;100.00
32237;BME280;18726;44.732;10.550;2023-03-01T18:05:51;101222.63;;;4.32;100.00
32237;BME280;18726;44.732;10.550;2023-03-01T18:08:56;101238.38;;;4.38;100.00
32237;BME280;18726;44.732;10.550;2023-03-01T18:12:00;101239.78;;;4.36;100.00
32237;BME280;18726;44.732;10.550;2023-03-01T18:15:05;101242.69;;;4.58;100.00
32237;BME280;18726;44.732;10.550;2023-03-01T18:18:09;101241.56;;;4.78;100.00
32237;BME280;18726;44.732;10.550;2023-03-01T18:21:14;101244.28;;;5.24;100.00
32237;BME280;18726;44.732;10.550;2023-03-01T18:24:17;101231.75;;;5.61;100.00
32237;BME280;18726;44.732;10.550;2023-03-01T18:27:21;101249.13;;;5.82;100.00
32237;BME280;18726;44.732;10.550;2023-03-01T18:30:24;101246.09;;;6.25;100.00
32237;BME280;18726;44.732;10.550;2023-03-01T18:33:29;101244.81;;;6.08;100.00
32237;BME280;18726;44.732;10.550;2023-03-01T18:36:34;101250.13;;;6.14;100.00
32237;BME280;18726;44.732;10.550;2023-03-01T18:39:38;101254.25;;;5.97;100.00
32237;BME280;18726;44.732;10.550;2023-03-01T18:42:44;101263.78;;;5.49;100.00
32237;BME280;18726;44.732;10.550;2023-03-01T18:45:48;101254.59;;;5.50;100.00
32237;BME280;18726;44.732;10.550;2023-03-01T18:48:52;101259.31;;;5.71;100.00
32237;BME280;18726;44.732;10.550;2023-03-01T18:51:56;101251.53;;;5.70;100.00
32237;BME280;18726;44.732;10.550;2023-03-01T18:55:00;101263.00;;;5.62;100.00
32237;BME280;18726;44.732;10.550;2023-03-01T18:58:04;101265.28;;;5.55;100.00
32237;BME280;18726;44.732;10.550;2023-03-01T19:01:14;101257.09;;;5.60;100.00
32237;BME280;18726;44.732;10.550;2023-03-01T19:04:18;101266.03;;;5.28;100.00
32237;BME280;18726;44.732;10.550;2023-03-01T19:07:22;101268.91;;;4.85;100.00
32237;BME280;18726;44.732;10.550;2023-03-01T19:10:26;101277.97;;;5.08;100.00
32237;BME280;18726;44.732;10.550;2023-03-01T19:13:31;101271.81;;;4.89;100.00
32237;BME280;18726;44.732;10.550;2023-03-01T19:16:36;101277.56;;;4.63;100.00
32237;BME280;18726;44.732;10.550;2023-03-01T19:19:40;101275.81;;;4.35;100.00
32237;BME280;18726;44.732;10.550;2023-03-01T19:22:43;101284.22;;;4.10;100.00
32237;BME280;18726;44.732;10.550;2023-03-01T19:25:46;101282.41;;;3.81;100.00
32237;BME280;18726;44.732;10.550;2023-03-01T19:28:51;101271.31;;;3.64;100.00
32237;BME280;18726;44.732;10.550;2023-03-01T19:31:55;101269.53;;;3.78;100.00
32237;BME280;18726;44.732;10.550;2023-03-01T19:34:58;101276.81;;;4.01;100.00
32237;BME280;18726;44.732;10.550;2023-03-01T19:38:02;101266.47;;;4.08;100.00
32237;BME280;18726;44.732;10.550;2023-03-01T19:41:11;101269.03;;;3.76;100.00
32237;BME280;18726;44.732;10.550;2023-03-01T19:44:17;101264.09;;;3.83;100.00
32237;BME280;18726;44.732;10.550;2023-03-01T19:47:20;101274.50;;;4.14;100.00
32237;BME280;18726;44.732;10.550;2023-03-01T19:50:24;101270.75;;;4.52;100.00
32237;BME280;18726;44.732;10.550;2023-03-01T19:53:28;101267.50;;;4.13;100.00
32237;BME280;18726;44.732;10.550;2023-03-01T19:56:32;101275.72;;;4.02;100.00
32237;BME280;18726;44.732;10.550;2023-03-01T19:59:36;101281.91;;;4.03;100.00
32237;BME280;18726;44.732;10.550;2023-03-01T20:02:39;101286.47;;;3.79;100.00
32237;BME280;18726;44.732;10.550;2023-03-01T20:05:43;101282.16;;;3.78;100.00
32237;BME280;18726;44.732;10.550;2023-03-01T20:08:47;101291.34;;;4.00;100.00
32237;BME280;18726;44.732;10.550;2023-03-01T20:11:52;101308.19;;;4.49;100.00
32237;BME280;18726;44.732;10.550;2023-03-01T20:14:56;101308.75;;;4.27;100.00
32237;BME280;18726;44.732;10.550;2023-03-01T20:17:59;101298.88;;;3.75;100.00
32237;BME280;18726;44.732;10.550;2023-03-01T20:21:03;101316.59;;;3.76;100.00
32237;BME280;18726;44.732;10.550;2023-03-01T20:24:07;101313.50;;;4.72;100.00
32237;BME280;18726;44.732;10.550;2023-03-01T20:27:11;101326.84;;;5.15;100.00